Strona główna
METAR-TAF:

METAR-TAF

Lotnisko :

Lleida-Alguaire

Lleida, Hiszpania

Szerokość geograficzna: 41-43-40N, Długość geograficzna: 000-32-09E, wysokość: 350 m

Aktualna obserwacja pogody

Raport powstał 22 minut temu, godzina 11:30 UTC
Wiatr 17 kt od wschodnio-północny wschód
Temperatura 11°C
Wilgotność 82%
Ciśnienie 1009 hPa
Widzialność 10 km lub więcej
Rozproszone chmury na wysokości 2500 ft

METAR: LEDA 161130Z 06017KT 9999 SCT025 11/08 Q1009

czas: 12:52 (11:52 UTC)


TAF: brakujący

Obserwacja i prognoza pogody dla ponad 4000 lotnisk (raport METAR i TAF).

Dostępne stacje oznaczono żółtymi i czerwonymi punktami na mapie.

Najedź kursorem aby zobaczyć nazwę stacji.

Kliknij aby zobaczyć obserwacje i prognozy pogody.

Aby zmienić mapę: kliknij na zielony przycisk z czarnym krzyżykiem, aby powiększyć; na zielony przycisk z myślnikiem, aby pomniejszyć; na zielone strzałki, aby przejść do map sąsiednich.


METAR-TAF: